createdAt,value
2019-05-21T00:00:27.940Z,17.07
2019-05-21T00:01:01.796Z,19.25
2019-05-21T00:01:35.674Z,16.40
2019-05-21T00:02:09.623Z,17.30
2019-05-21T00:02:43.043Z,17.90
2019-05-21T00:03:17.010Z,17.35
2019-05-21T00:03:50.957Z,18.42
2019-05-21T00:04:28.229Z,15.98
2019-05-21T00:05:00.084Z,16.80
2019-05-21T00:05:34.086Z,19.32
2019-05-21T00:06:07.792Z,17.82
2019-05-21T00:06:41.732Z,17.07
2019-05-21T00:07:15.643Z,17.50
2019-05-21T00:07:49.183Z,16.93
2019-05-21T00:08:23.163Z,17.80
2019-05-21T00:08:57.130Z,18.23
2019-05-21T00:09:30.710Z,20.40
2019-05-21T00:10:04.896Z,16.85
2019-05-21T00:10:38.753Z,16.07
2019-05-21T00:11:12.333Z,18.40
2019-05-21T00:11:46.329Z,16.73
2019-05-21T00:12:20.353Z,16.65
2019-05-21T00:12:53.930Z,19.42
2019-05-21T00:13:27.974Z,16.45
2019-05-21T00:14:01.964Z,17.92
2019-05-21T00:14:35.633Z,16.37
2019-05-21T00:15:09.598Z,16.60
2019-05-21T00:15:43.468Z,16.30
2019-05-21T00:16:16.984Z,17.85
2019-05-21T00:16:50.880Z,17.65
2019-05-21T00:17:24.830Z,17.52
2019-05-21T00:18:04.363Z,17.42
2019-05-21T00:18:38.235Z,16.23
2019-05-21T00:19:12.228Z,17.07
2019-05-21T00:19:45.721Z,17.65
2019-05-21T00:20:19.862Z,16.77
2019-05-21T00:20:53.747Z,18.23
2019-05-21T00:21:27.226Z,16.42
2019-05-21T00:22:01.129Z,19.48
2019-05-21T00:22:35.373Z,16.02
2019-05-21T00:23:09.167Z,16.45
2019-05-21T00:23:43.854Z,17.25
2019-05-21T00:24:17.760Z,16.32
2019-05-21T00:24:51.575Z,20.10
2019-05-21T00:25:25.759Z,17.90
2019-05-21T00:25:59.640Z,24.67
2019-05-21T00:26:33.061Z,20.02
2019-05-21T00:27:07.015Z,15.80
2019-05-21T00:27:40.893Z,23.77
2019-05-21T00:28:32.502Z,16.70
2019-05-21T00:29:24.082Z,16.80
2019-05-21T00:30:15.770Z,15.30
2019-05-21T00:31:07.715Z,15.48
2019-05-21T00:31:59.148Z,16.50
2019-05-21T00:32:52.138Z,14.95
2019-05-21T00:33:43.678Z,16.35
2019-05-21T00:34:44.302Z,15.72
2019-05-21T00:35:48.099Z,14.68
2019-05-21T00:38:02.700Z,15.10
2019-05-21T00:38:55.675Z,14.28
2019-05-21T00:39:49.165Z,16.42
2019-05-21T00:40:41.006Z,18.50
2019-05-21T00:41:32.533Z,16.37
2019-05-21T00:42:06.742Z,22.75
2019-05-21T00:42:42.021Z,20.68
2019-05-21T00:43:15.537Z,15.98
2019-05-21T00:43:55.309Z,15.63
2019-05-21T00:44:30.264Z,15.65
2019-05-21T00:45:05.332Z,17.15
2019-05-21T00:45:39.209Z,16.80
2019-05-21T00:46:13.078Z,17.05
2019-05-21T00:46:46.605Z,15.13
2019-05-21T00:47:20.528Z,14.75
2019-05-21T00:47:54.355Z,17.50
2019-05-21T00:48:27.917Z,16.07
2019-05-21T00:49:01.801Z,16.02
2019-05-21T00:49:35.669Z,17.23
2019-05-21T00:50:09.612Z,18.37
2019-05-21T00:50:43.493Z,19.25
2019-05-21T00:51:17.411Z,16.37
2019-05-21T00:51:50.933Z,16.73
2019-05-21T00:52:24.798Z,17.05
2019-05-21T00:52:58.849Z,16.70
2019-05-21T00:53:33.287Z,15.63
2019-05-21T00:54:07.156Z,15.80
2019-05-21T00:54:41.093Z,18.87
2019-05-21T00:55:14.617Z,22.17
2019-05-21T00:55:49.833Z,20.57
2019-05-21T00:56:23.853Z,21.27
2019-05-21T00:56:57.346Z,19.32
2019-05-21T00:57:31.217Z,17.15
2019-05-21T00:58:05.154Z,18.35
2019-05-21T00:58:38.743Z,18.15
2019-05-21T00:59:12.598Z,17.70
2019-05-21T00:59:46.677Z,17.77
2019-05-21T01:00:20.160Z,17.07
2019-05-21T01:00:54.055Z,19.20
2019-05-21T01:01:27.910Z,20.17
2019-05-21T01:02:01.415Z,22.42
2019-05-21T01:02:35.286Z,20.55
2019-05-21T01:03:09.157Z,20.80
2019-05-21T01:03:43.408Z,19.55
2019-05-21T01:04:17.508Z,19.35
2019-05-21T01:05:00.355Z,21.97
2019-05-21T01:05:26.667Z,21.10
2019-05-21T01:06:00.588Z,23.27
2019-05-21T01:06:34.479Z,20.25
2019-05-21T01:07:07.985Z,21.75
2019-05-21T01:07:41.854Z,23.20
2019-05-21T01:08:15.730Z,25.57
2019-05-21T01:08:49.224Z,21.75
2019-05-21T01:09:23.145Z,24.82
2019-05-21T01:09:57.031Z,24.50
2019-05-21T01:10:30.535Z,24.98
2019-05-21T01:11:04.406Z,19.82
2019-05-21T01:11:38.282Z,21.10
2019-05-21T01:12:11.889Z,25.30
2019-05-21T01:12:45.749Z,24.00
2019-05-21T01:13:19.666Z,21.30
2019-05-21T01:13:53.160Z,22.35
2019-05-21T01:14:26.946Z,22.02
2019-05-21T01:15:00.827Z,19.95
2019-05-21T01:15:34.369Z,20.60
2019-05-21T01:16:08.245Z,19.95
2019-05-21T01:16:42.120Z,19.80
2019-05-21T01:17:15.651Z,18.98
2019-05-21T01:17:49.522Z,17.98
2019-05-21T01:18:23.419Z,22.13
2019-05-21T01:18:56.913Z,19.15
2019-05-21T01:19:30.783Z,19.37
2019-05-21T01:20:04.642Z,17.77
2019-05-21T01:20:38.154Z,16.67
2019-05-21T01:21:12.031Z,19.37
2019-05-21T01:21:45.911Z,16.67
2019-05-21T01:22:19.421Z,16.27
2019-05-21T01:22:53.282Z,18.07
2019-05-21T01:23:27.189Z,15.90
2019-05-21T01:24:00.920Z,18.70
2019-05-21T01:24:34.791Z,19.15
2019-05-21T01:25:08.864Z,15.93
2019-05-21T01:25:42.346Z,16.40
2019-05-21T01:26:16.330Z,17.05
2019-05-21T01:26:50.191Z,16.85
2019-05-21T01:27:23.698Z,16.50
2019-05-21T01:27:57.575Z,18.30
2019-05-21T01:28:31.466Z,17.52
2019-05-21T01:29:04.991Z,18.32
2019-05-21T01:29:38.931Z,17.87
2019-05-21T01:30:12.903Z,18.75
2019-05-21T01:30:46.461Z,21.17
2019-05-21T01:31:20.334Z,17.80
2019-05-21T01:31:54.241Z,21.30
2019-05-21T01:32:27.706Z,18.95
2019-05-21T01:33:01.672Z,18.12
2019-05-21T01:33:35.547Z,17.45
2019-05-21T01:34:11.465Z,19.37
2019-05-21T01:34:44.657Z,19.98
2019-05-21T01:35:18.531Z,22.67
2019-05-21T01:35:52.026Z,19.55
2019-05-21T01:36:25.938Z,16.62
2019-05-21T01:36:59.802Z,20.88
2019-05-21T01:37:33.309Z,20.02
2019-05-21T01:38:07.182Z,19.85
2019-05-21T01:38:41.267Z,19.98
2019-05-21T01:39:14.754Z,18.50
2019-05-21T01:39:48.624Z,18.20
2019-05-21T01:40:22.522Z,19.60
2019-05-21T01:40:56.032Z,17.60
2019-05-21T01:41:29.919Z,18.55
2019-05-21T01:42:03.775Z,16.90
2019-05-21T01:42:37.259Z,18.82
2019-05-21T01:43:11.162Z,20.27
2019-05-21T01:43:45.239Z,19.82
2019-05-21T01:44:18.664Z,19.12
2019-05-21T01:44:52.565Z,18.25
2019-05-21T01:45:26.578Z,18.95
2019-05-21T01:46:00.069Z,19.05
2019-05-21T01:46:33.942Z,23.00
2019-05-21T01:47:07.835Z,19.50
2019-05-21T01:47:41.338Z,18.27
2019-05-21T01:48:15.255Z,19.00
2019-05-21T01:48:49.130Z,19.55
2019-05-21T01:49:22.617Z,18.62
2019-05-21T01:49:56.483Z,22.40
2019-05-21T01:50:30.283Z,19.50
2019-05-21T01:51:03.816Z,19.05
2019-05-21T01:51:37.677Z,20.00
2019-05-21T01:52:11.752Z,21.02
2019-05-21T01:52:45.284Z,19.15
2019-05-21T01:53:19.154Z,21.27
2019-05-21T01:53:53.065Z,19.12
2019-05-21T01:54:26.549Z,21.12
2019-05-21T01:55:00.450Z,20.12
2019-05-21T01:55:34.355Z,19.32
2019-05-21T01:56:07.784Z,22.27
2019-05-21T01:56:41.617Z,22.02
2019-05-21T01:57:15.492Z,19.57
2019-05-21T01:57:49.007Z,16.82
2019-05-21T01:58:22.888Z,18.05
2019-05-21T01:58:56.809Z,18.00
2019-05-21T01:59:30.396Z,22.17
2019-05-21T02:00:04.969Z,18.25
2019-05-21T02:00:38.842Z,18.95
2019-05-21T02:01:12.353Z,20.00
2019-05-21T02:01:46.290Z,19.10
2019-05-21T02:02:20.230Z,19.20
2019-05-21T02:02:53.722Z,20.52
2019-05-21T02:03:27.618Z,21.25
2019-05-21T02:04:01.526Z,22.75
2019-05-21T02:04:35.099Z,20.72
2019-05-21T02:05:09.293Z,21.52
2019-05-21T02:05:43.179Z,22.67
2019-05-21T02:06:16.857Z,21.30
2019-05-21T02:06:50.802Z,19.80
2019-05-21T02:07:24.750Z,22.37
2019-05-21T02:07:58.258Z,20.70
2019-05-21T02:08:32.157Z,24.57
2019-05-21T02:09:07.251Z,20.70
2019-05-21T02:09:59.524Z,21.15
2019-05-21T02:10:33.402Z,21.95
2019-05-21T02:11:07.332Z,23.15
2019-05-21T02:11:41.037Z,21.93
2019-05-21T02:12:14.922Z,23.47
2019-05-21T02:12:48.809Z,22.27
2019-05-21T02:13:22.392Z,22.37
2019-05-21T02:13:56.289Z,22.27
2019-05-21T02:14:30.554Z,22.95
2019-05-21T02:15:04.423Z,20.88
2019-05-21T02:15:38.340Z,21.55
2019-05-21T02:16:12.241Z,20.27
2019-05-21T02:16:45.769Z,21.10
2019-05-21T02:17:19.660Z,20.72
2019-05-21T02:17:53.544Z,19.62
2019-05-21T02:18:26.954Z,22.22
2019-05-21T02:19:00.831Z,22.58
2019-05-21T02:19:34.806Z,21.55
2019-05-21T02:20:08.397Z,22.85
2019-05-21T02:20:42.268Z,22.20
2019-05-21T02:21:16.092Z,21.00
2019-05-21T02:21:49.666Z,20.90
2019-05-21T02:22:23.613Z,23.00
2019-05-21T02:22:57.517Z,20.90
2019-05-21T02:23:31.008Z,19.85
2019-05-21T02:24:05.463Z,21.12
2019-05-21T02:24:39.971Z,20.55
2019-05-21T02:25:13.706Z,22.07
2019-05-21T02:25:47.637Z,19.73
2019-05-21T02:26:21.490Z,22.80
2019-05-21T02:26:54.981Z,20.48
2019-05-21T02:27:28.876Z,24.10
2019-05-21T02:28:02.815Z,23.30
2019-05-21T02:28:36.302Z,21.25
2019-05-21T02:29:10.159Z,24.72
2019-05-21T02:29:44.078Z,20.45
2019-05-21T02:30:17.865Z,23.95
2019-05-21T02:30:56.207Z,21.82
2019-05-21T02:31:27.296Z,27.32
2019-05-21T02:32:00.838Z,22.15
2019-05-21T02:32:34.755Z,21.68
2019-05-21T02:33:08.620Z,20.43
2019-05-21T02:33:42.116Z,21.07
2019-05-21T02:34:15.971Z,22.77
2019-05-21T02:34:49.847Z,21.97
2019-05-21T02:35:23.350Z,22.10
2019-05-21T02:35:57.270Z,23.18
2019-05-21T02:36:31.144Z,25.65
2019-05-21T02:37:06.279Z,22.35
2019-05-21T02:37:40.623Z,23.35
2019-05-21T02:38:14.503Z,22.55
2019-05-21T02:38:48.003Z,24.65
2019-05-21T02:39:22.628Z,23.18
2019-05-21T02:39:56.494Z,22.65
2019-05-21T02:40:30.054Z,24.87
2019-05-21T02:41:03.958Z,22.50
2019-05-21T02:41:37.828Z,23.38
2019-05-21T02:42:11.520Z,20.12
2019-05-21T02:42:45.406Z,27.25
2019-05-21T02:43:19.260Z,24.70
2019-05-21T02:43:52.795Z,24.65
2019-05-21T02:44:27.181Z,23.18
2019-05-21T02:45:01.054Z,24.00
2019-05-21T02:45:34.649Z,25.90
2019-05-21T02:46:08.675Z,22.45
2019-05-21T02:46:42.738Z,25.55
2019-05-21T02:47:16.238Z,24.92
2019-05-21T02:47:50.127Z,24.98
2019-05-21T02:48:24.000Z,23.62
2019-05-21T02:48:57.559Z,26.30
2019-05-21T02:49:31.444Z,24.72
2019-05-21T02:50:05.362Z,25.23
2019-05-21T02:50:38.963Z,30.20
2019-05-21T02:51:12.901Z,25.55
2019-05-21T02:51:46.764Z,24.87
2019-05-21T02:52:20.278Z,26.62
2019-05-21T02:52:54.354Z,25.70
2019-05-21T02:53:28.256Z,23.92
2019-05-21T02:54:01.749Z,27.45
2019-05-21T02:54:40.867Z,26.95
2019-05-21T02:55:12.387Z,24.75
2019-05-21T02:55:45.997Z,28.85
2019-05-21T02:56:19.969Z,24.87
2019-05-21T02:56:53.914Z,25.27
2019-05-21T02:57:38.494Z,24.67
2019-05-21T02:58:12.347Z,23.83
2019-05-21T02:58:46.314Z,27.65
2019-05-21T02:59:19.813Z,26.02
2019-05-21T02:59:55.343Z,29.87
2019-05-21T03:00:39.554Z,27.90
2019-05-21T03:01:32.235Z,26.07
2019-05-21T03:02:15.287Z,26.45
2019-05-21T03:02:49.170Z,24.27
2019-05-21T03:03:25.058Z,26.17
2019-05-21T03:03:58.568Z,26.27
2019-05-21T03:04:32.439Z,24.98
2019-05-21T03:05:06.519Z,28.75
2019-05-21T03:05:40.127Z,27.60
2019-05-21T03:06:15.054Z,27.35
2019-05-21T03:06:49.192Z,28.10
2019-05-21T03:07:25.526Z,28.38
2019-05-21T03:07:58.314Z,27.90
2019-05-21T03:08:32.200Z,23.80
2019-05-21T03:09:06.427Z,29.37
2019-05-21T03:09:40.337Z,24.23
2019-05-21T03:10:14.486Z,26.23
2019-05-21T03:10:47.987Z,28.02
2019-05-21T03:11:21.859Z,28.70
2019-05-21T03:11:55.733Z,29.00
2019-05-21T03:12:29.221Z,30.70
2019-05-21T03:13:03.091Z,30.48
2019-05-21T03:13:36.961Z,28.27
2019-05-21T03:14:10.467Z,29.27
2019-05-21T03:14:44.622Z,30.35
2019-05-21T03:15:18.589Z,26.20
2019-05-21T03:15:52.109Z,32.20
2019-05-21T03:16:25.984Z,29.32
2019-05-21T03:16:59.846Z,28.50
2019-05-21T03:17:33.352Z,32.40
2019-05-21T03:18:07.239Z,31.45
2019-05-21T03:18:41.179Z,26.12
2019-05-21T03:19:16.671Z,31.40
2019-05-21T03:19:50.338Z,29.30
2019-05-21T03:20:24.257Z,30.55
2019-05-21T03:20:57.774Z,32.83
2019-05-21T03:21:31.706Z,31.20
2019-05-21T03:22:05.575Z,31.48
2019-05-21T03:22:39.065Z,31.23
2019-05-21T03:23:13.009Z,32.23
2019-05-21T03:23:46.903Z,31.12
2019-05-21T03:24:23.914Z,32.63
2019-05-21T03:25:02.151Z,30.32
2019-05-21T03:25:36.192Z,29.35
2019-05-21T03:26:09.733Z,33.23
2019-05-21T03:26:43.839Z,32.45
2019-05-21T03:27:17.705Z,32.35
2019-05-21T03:27:51.208Z,32.75
2019-05-21T03:28:29.665Z,33.13
2019-05-21T03:29:04.879Z,31.35
2019-05-21T03:29:44.548Z,31.82
2019-05-21T03:30:25.318Z,35.23
2019-05-21T03:31:04.516Z,37.90
2019-05-21T03:31:38.081Z,35.90
2019-05-21T03:32:12.107Z,33.13
2019-05-21T03:32:46.210Z,34.92
2019-05-21T03:33:19.784Z,36.10
2019-05-21T03:33:53.672Z,39.48
2019-05-21T03:34:27.532Z,33.92
2019-05-21T03:35:01.029Z,37.40
2019-05-21T03:35:34.910Z,34.13
2019-05-21T03:36:08.902Z,37.55
2019-05-21T03:36:42.465Z,35.50
2019-05-21T03:37:16.344Z,38.55
2019-05-21T03:37:50.262Z,34.63
2019-05-21T03:38:23.763Z,34.90
2019-05-21T03:38:57.636Z,36.75
2019-05-21T03:39:31.544Z,40.83
2019-05-21T03:40:05.114Z,37.08
2019-05-21T03:40:39.011Z,39.50
2019-05-21T03:41:12.865Z,36.63
2019-05-21T03:41:46.363Z,38.17
2019-05-21T03:42:20.230Z,38.25
2019-05-21T03:42:54.169Z,37.78
2019-05-21T03:43:27.687Z,39.55
2019-05-21T03:44:01.492Z,38.78
2019-05-21T03:44:35.617Z,34.63
2019-05-21T03:45:09.216Z,37.40
2019-05-21T03:45:43.019Z,38.65
2019-05-21T03:46:16.998Z,34.80
2019-05-21T03:46:50.456Z,35.50
2019-05-21T03:47:24.366Z,37.88
2019-05-21T03:47:58.581Z,37.20
2019-05-21T03:48:32.209Z,37.33
2019-05-21T03:49:06.078Z,46.25
2019-05-21T03:49:40.125Z,39.30
2019-05-21T03:50:13.770Z,39.67
2019-05-21T03:50:47.670Z,39.55
2019-05-21T03:51:21.617Z,38.60
2019-05-21T03:51:55.091Z,41.63
2019-05-21T03:52:28.984Z,37.23
2019-05-21T03:53:02.839Z,38.23
2019-05-21T03:53:36.348Z,40.25
2019-05-21T03:54:10.220Z,41.48
2019-05-21T03:54:44.105Z,39.90
2019-05-21T03:55:17.610Z,43.30
2019-05-21T03:55:51.502Z,50.55
2019-05-21T03:56:25.435Z,42.53
2019-05-21T03:56:59.158Z,43.23
2019-05-21T03:57:33.037Z,39.60
2019-05-21T03:58:06.987Z,36.53
2019-05-21T03:58:40.546Z,39.65
2019-05-21T03:59:14.491Z,40.90
2019-05-21T03:59:48.359Z,39.45
2019-05-21T04:00:21.879Z,41.58
2019-05-21T04:00:55.720Z,40.85
2019-05-21T04:01:29.589Z,38.05
2019-05-21T04:02:03.172Z,40.78
2019-05-21T04:02:37.121Z,39.95
2019-05-21T04:03:10.988Z,39.88
2019-05-21T04:03:44.492Z,43.73
2019-05-21T04:04:18.365Z,39.15
2019-05-21T04:04:52.258Z,40.35
2019-05-21T04:05:25.994Z,40.10
2019-05-21T04:05:59.972Z,40.00
2019-05-21T04:06:50.706Z,44.35
2019-05-21T04:07:09.299Z,40.75
2019-05-21T04:07:43.290Z,39.95
2019-05-21T04:08:17.145Z,39.90
2019-05-21T04:08:50.647Z,40.23
2019-05-21T04:09:24.513Z,40.90
2019-05-21T04:09:58.359Z,38.80
2019-05-21T04:10:31.858Z,41.90
2019-05-21T04:11:05.746Z,37.00
2019-05-21T04:11:39.698Z,41.42
2019-05-21T04:12:13.119Z,42.25
2019-05-21T04:13:06.081Z,39.85
2019-05-21T04:13:40.074Z,38.65
2019-05-21T04:14:29.607Z,38.40
2019-05-21T04:15:07.712Z,39.05
2019-05-21T04:15:51.942Z,34.50
2019-05-21T04:16:34.862Z,38.13
2019-05-21T04:17:19.282Z,40.25
2019-05-21T04:18:03.478Z,39.58
2019-05-21T04:18:41.791Z,38.75
2019-05-21T04:19:19.646Z,37.00
2019-05-21T04:19:53.638Z,41.77
2019-05-21T04:20:27.162Z,34.75
2019-05-21T04:21:01.042Z,37.20
2019-05-21T04:21:34.915Z,39.78
2019-05-21T04:22:10.511Z,44.08
2019-05-21T04:22:54.768Z,36.75
2019-05-21T04:23:29.062Z,40.70
2019-05-21T04:24:02.563Z,39.10
2019-05-21T04:24:37.113Z,40.00
2019-05-21T04:25:11.049Z,39.92
2019-05-21T04:25:44.582Z,44.55
2019-05-21T04:26:18.472Z,39.63
2019-05-21T04:26:52.413Z,43.98
2019-05-21T04:27:25.926Z,40.40
2019-05-21T04:27:59.806Z,40.73
2019-05-21T04:28:33.700Z,36.00
2019-05-21T04:29:07.260Z,38.08
2019-05-21T04:29:41.137Z,36.95
2019-05-21T04:30:15.094Z,42.43
2019-05-21T04:30:48.604Z,41.85
2019-05-21T04:31:23.048Z,37.33
2019-05-21T04:31:56.949Z,36.83
2019-05-21T04:32:30.443Z,38.40
2019-05-21T04:33:04.408Z,40.00
2019-05-21T04:33:38.277Z,38.75
2019-05-21T04:34:11.767Z,38.10
2019-05-21T04:34:45.637Z,37.15
2019-05-21T04:35:19.590Z,36.25
2019-05-21T04:35:53.159Z,38.85
2019-05-21T04:36:27.064Z,36.30
2019-05-21T04:37:10.516Z,39.50
2019-05-21T04:37:36.157Z,36.28
2019-05-21T04:38:10.019Z,39.27
2019-05-21T04:38:43.947Z,34.88
2019-05-21T04:39:17.466Z,39.23
2019-05-21T04:39:51.380Z,35.98
2019-05-21T04:40:25.344Z,34.55
2019-05-21T04:40:58.836Z,35.20
2019-05-21T04:41:32.721Z,39.27
2019-05-21T04:42:06.741Z,36.77
2019-05-21T04:42:40.264Z,34.80
2019-05-21T04:43:14.115Z,35.75
2019-05-21T04:43:47.943Z,37.58
2019-05-21T04:44:21.504Z,36.85
2019-05-21T04:44:55.315Z,36.60
2019-05-21T04:45:29.185Z,35.45
2019-05-21T04:46:02.742Z,38.33
2019-05-21T04:46:36.632Z,36.48
2019-05-21T04:47:10.509Z,44.67
2019-05-21T04:47:44.046Z,36.70
2019-05-21T04:48:18.055Z,37.65
2019-05-21T04:48:51.933Z,36.45
2019-05-21T04:49:25.447Z,39.08
2019-05-21T04:49:59.322Z,34.20
2019-05-21T04:50:33.278Z,31.77
2019-05-21T04:51:06.823Z,35.70
2019-05-21T04:51:40.735Z,33.28
2019-05-21T04:52:14.712Z,31.87
2019-05-21T04:52:48.220Z,33.40
2019-05-21T04:53:22.146Z,33.65
2019-05-21T04:53:56.025Z,31.30
2019-05-21T04:54:29.586Z,32.85
2019-05-21T04:55:03.471Z,31.17
2019-05-21T04:55:37.358Z,28.45
2019-05-21T04:56:10.871Z,30.82
2019-05-21T04:56:44.756Z,29.80
2019-05-21T04:57:18.659Z,33.28
2019-05-21T04:57:52.161Z,30.55
2019-05-21T04:58:26.050Z,31.52
2019-05-21T04:58:59.978Z,30.90
2019-05-21T04:59:33.483Z,29.12
2019-05-21T05:00:07.621Z,28.65
2019-05-21T05:00:41.499Z,32.90
2019-05-21T05:01:15.103Z,30.08
2019-05-21T05:01:52.118Z,29.60
2019-05-21T05:02:26.187Z,29.72
2019-05-21T05:02:59.682Z,33.25
2019-05-21T05:03:33.574Z,29.85
2019-05-21T05:04:07.827Z,32.67
2019-05-21T05:04:41.348Z,30.08
2019-05-21T05:05:15.473Z,25.92
2019-05-21T05:05:49.400Z,27.27
2019-05-21T05:06:22.899Z,28.17
2019-05-21T05:06:56.768Z,28.42
2019-05-21T05:07:30.655Z,28.38
2019-05-21T05:08:04.193Z,28.40
2019-05-21T05:08:38.115Z,26.95
2019-05-21T05:09:11.999Z,29.02
2019-05-21T05:09:45.504Z,26.40
2019-05-21T05:10:19.389Z,26.27
2019-05-21T05:10:53.304Z,26.93
2019-05-21T05:11:26.805Z,27.22
2019-05-21T05:12:00.702Z,25.80
2019-05-21T05:12:34.754Z,25.90
2019-05-21T05:13:08.261Z,23.25
2019-05-21T05:13:42.135Z,25.92
2019-05-21T05:14:16.006Z,26.40
2019-05-21T05:14:49.508Z,27.07
2019-05-21T05:15:23.380Z,22.90
2019-05-21T05:15:57.430Z,26.68
2019-05-21T05:16:30.962Z,22.90
2019-05-21T05:17:04.960Z,24.47
2019-05-21T05:17:39.271Z,22.75
2019-05-21T05:18:12.834Z,26.20
2019-05-21T05:18:46.721Z,26.97
2019-05-21T05:19:20.635Z,24.35
2019-05-21T05:19:54.239Z,25.77
2019-05-21T05:20:28.712Z,25.23
2019-05-21T05:21:02.585Z,27.13
2019-05-21T05:21:36.182Z,23.90
2019-05-21T05:22:10.061Z,25.25
2019-05-21T05:22:44.706Z,26.48
2019-05-21T05:23:18.440Z,30.02
2019-05-21T05:23:52.411Z,25.80
2019-05-21T05:24:26.380Z,23.45
2019-05-21T05:24:59.917Z,26.37
2019-05-21T05:25:33.871Z,24.75
2019-05-21T05:26:07.838Z,23.42
2019-05-21T05:26:41.355Z,24.70
2019-05-21T05:27:15.246Z,23.40
2019-05-21T05:27:49.123Z,20.15
2019-05-21T05:28:22.643Z,23.32
2019-05-21T05:28:56.505Z,23.60
2019-05-21T05:29:30.478Z,22.73
2019-05-21T05:30:05.017Z,22.98
2019-05-21T05:30:38.912Z,24.07
2019-05-21T05:31:15.195Z,23.65
2019-05-21T05:31:48.062Z,24.27
2019-05-21T05:32:21.989Z,26.35
2019-05-21T05:32:55.838Z,23.57
2019-05-21T05:33:29.414Z,20.10
2019-05-21T05:34:03.336Z,25.48
2019-05-21T05:34:37.311Z,19.32
2019-05-21T05:35:11.632Z,22.85
2019-05-21T05:35:45.605Z,25.12
2019-05-21T05:36:20.725Z,20.95
2019-05-21T05:36:54.249Z,20.30
2019-05-21T05:37:42.830Z,21.82
2019-05-21T05:38:04.631Z,22.48
2019-05-21T05:38:38.154Z,21.80
2019-05-21T05:39:12.107Z,23.20
2019-05-21T05:39:45.979Z,21.85
2019-05-21T05:40:19.691Z,24.57
2019-05-21T05:40:53.636Z,22.05
2019-05-21T05:41:29.150Z,24.37
2019-05-21T05:42:02.660Z,21.73
2019-05-21T05:42:36.565Z,27.75
2019-05-21T05:43:10.422Z,22.42
2019-05-21T05:43:43.917Z,22.85
2019-05-21T05:44:17.797Z,22.30
2019-05-21T05:44:51.693Z,20.35
2019-05-21T05:45:26.100Z,22.30
2019-05-21T05:45:59.995Z,20.68
2019-05-21T05:46:33.939Z,19.90
2019-05-21T05:47:07.528Z,20.68
2019-05-21T05:47:41.761Z,21.40
2019-05-21T05:48:16.207Z,19.57
2019-05-21T05:49:11.648Z,22.80
2019-05-21T05:49:48.098Z,22.85
2019-05-21T05:50:24.566Z,20.72
2019-05-21T05:51:00.259Z,20.82
2019-05-21T05:51:33.772Z,20.77
2019-05-21T05:52:07.649Z,25.05
2019-05-21T05:52:41.538Z,21.85
2019-05-21T05:53:15.109Z,21.23
2019-05-21T05:53:58.590Z,21.25
2019-05-21T05:54:32.467Z,20.85
2019-05-21T05:55:06.092Z,19.60
2019-05-21T05:55:39.952Z,23.05
2019-05-21T05:56:13.843Z,20.80
2019-05-21T05:56:47.355Z,21.05
2019-05-21T05:57:21.211Z,20.43
2019-05-21T05:57:55.148Z,25.00
2019-05-21T05:58:28.651Z,18.82
2019-05-21T05:59:02.514Z,24.37
2019-05-21T05:59:36.390Z,19.50
2019-05-21T06:00:11.004Z,19.42
2019-05-21T06:00:44.899Z,20.70
2019-05-21T06:01:18.894Z,20.82
2019-05-21T06:01:52.442Z,26.23
2019-05-21T06:02:26.340Z,21.73
2019-05-21T06:03:00.234Z,20.80
2019-05-21T06:03:33.757Z,20.05
2019-05-21T06:04:07.628Z,18.02
2019-05-21T06:04:41.501Z,21.60
2019-05-21T06:05:15.385Z,20.30
2019-05-21T06:05:49.251Z,18.60
2019-05-21T06:06:23.208Z,19.23
2019-05-21T06:06:56.737Z,18.70
2019-05-21T06:07:30.534Z,19.73
2019-05-21T06:08:04.447Z,21.00
2019-05-21T06:08:37.951Z,18.60
2019-05-21T06:09:11.890Z,18.57
2019-05-21T06:09:45.804Z,19.55
2019-05-21T06:10:19.432Z,20.95
2019-05-21T06:10:53.339Z,19.73
2019-05-21T06:11:27.250Z,18.00
2019-05-21T06:12:00.830Z,20.57
2019-05-21T06:12:34.724Z,18.70
2019-05-21T06:13:08.796Z,17.73
2019-05-21T06:13:42.290Z,20.25
2019-05-21T06:14:16.250Z,18.32
2019-05-21T06:14:50.178Z,20.15
2019-05-21T06:15:23.688Z,20.23
2019-05-21T06:15:59.202Z,20.32
2019-05-21T06:16:33.464Z,18.40
2019-05-21T06:17:07.022Z,17.85
2019-05-21T06:17:43.565Z,22.07
2019-05-21T06:18:17.507Z,24.90
2019-05-21T06:18:51.105Z,22.05
2019-05-21T06:19:25.138Z,16.10
2019-05-21T06:19:59.023Z,17.75
2019-05-21T06:20:32.873Z,17.12
2019-05-21T06:21:12.606Z,18.20
2019-05-21T06:21:58.263Z,17.67
2019-05-21T06:22:31.828Z,16.77
2019-05-21T06:23:05.803Z,17.55
2019-05-21T06:23:39.732Z,18.15
2019-05-21T06:24:13.919Z,22.45
2019-05-21T06:24:47.838Z,16.95
2019-05-21T06:25:21.951Z,22.00
2019-05-21T06:25:55.540Z,19.95
2019-05-21T06:26:29.619Z,19.52
2019-05-21T06:27:03.814Z,17.85
2019-05-21T06:27:37.352Z,20.12
2019-05-21T06:28:11.988Z,18.73
2019-05-21T06:28:46.658Z,18.87
2019-05-21T06:29:20.357Z,18.20
2019-05-21T06:29:54.321Z,18.82
2019-05-21T06:30:31.000Z,17.48
2019-05-21T06:31:04.744Z,19.12
2019-05-21T06:31:38.628Z,18.62
2019-05-21T06:32:13.999Z,21.65
2019-05-21T06:32:47.614Z,17.90
2019-05-21T06:33:21.574Z,19.40
2019-05-21T06:33:55.788Z,18.60
2019-05-21T06:34:29.406Z,18.27
2019-05-21T06:35:03.284Z,17.52
2019-05-21T06:35:37.304Z,17.45
2019-05-21T06:36:10.831Z,20.77
2019-05-21T06:36:44.846Z,19.45
2019-05-21T06:37:18.884Z,18.45
2019-05-21T06:37:52.451Z,18.52
2019-05-21T06:38:26.405Z,18.25
2019-05-21T06:39:00.399Z,17.90
2019-05-21T06:39:33.890Z,19.15
2019-05-21T06:40:07.878Z,17.90
2019-05-21T06:40:43.295Z,17.65
2019-05-21T06:41:16.880Z,17.00
2019-05-21T06:41:51.000Z,18.70
2019-05-21T06:42:26.393Z,20.23
2019-05-21T06:42:59.926Z,18.77
2019-05-21T06:43:35.441Z,22.37
2019-05-21T06:44:11.202Z,21.48
2019-05-21T06:44:44.817Z,18.12
2019-05-21T06:45:19.398Z,19.07
2019-05-21T06:45:55.637Z,16.93
2019-05-21T06:46:29.982Z,18.82
2019-05-21T06:47:03.942Z,18.62
2019-05-21T06:47:39.343Z,20.35
2019-05-21T06:48:13.130Z,19.57
2019-05-21T06:48:47.620Z,21.52
2019-05-21T06:49:22.870Z,18.95
2019-05-21T06:49:56.545Z,20.72
2019-05-21T06:50:30.525Z,19.15
2019-05-21T06:51:04.580Z,17.45
2019-05-21T06:51:38.438Z,20.00
2019-05-21T06:52:12.692Z,18.95
2019-05-21T06:52:47.031Z,18.37
2019-05-21T06:53:20.878Z,19.25
2019-05-21T06:53:57.129Z,18.67
2019-05-21T06:54:31.352Z,18.52
2019-05-21T06:55:05.343Z,18.73
2019-05-21T06:55:39.531Z,23.10
2019-05-21T06:56:13.770Z,20.20
2019-05-21T06:56:47.653Z,18.42
2019-05-21T06:57:21.907Z,19.48
2019-05-21T06:57:55.987Z,20.15
2019-05-21T06:58:29.636Z,17.92
2019-05-21T06:59:04.745Z,19.55
2019-05-21T06:59:40.912Z,17.55
2019-05-21T07:00:15.449Z,18.82
2019-05-21T07:00:52.347Z,19.05
2019-05-21T07:01:28.859Z,18.35
2019-05-21T07:02:04.756Z,19.17
2019-05-21T07:02:40.494Z,20.52
2019-05-21T07:03:17.265Z,21.70
2019-05-21T07:04:00.371Z,21.35
2019-05-21T07:04:35.786Z,20.05
2019-05-21T07:05:12.607Z,19.40
2019-05-21T07:05:58.254Z,19.30
2019-05-21T07:06:25.641Z,20.45
2019-05-21T07:07:01.130Z,17.87
2019-05-21T07:07:37.447Z,16.57
2019-05-21T07:08:13.043Z,19.37
2019-05-21T07:08:50.497Z,18.62
2019-05-21T07:09:24.100Z,20.95
2019-05-21T07:09:58.175Z,19.07
2019-05-21T07:10:34.335Z,16.85
2019-05-21T07:11:07.849Z,19.70
2019-05-21T07:11:41.769Z,19.17
2019-05-21T07:12:15.749Z,18.10
2019-05-21T07:12:49.257Z,19.05
2019-05-21T07:13:23.238Z,18.90
2019-05-21T07:13:57.168Z,19.55
2019-05-21T07:14:30.766Z,16.80
2019-05-21T07:15:07.890Z,16.30
2019-05-21T07:15:41.818Z,18.77
2019-05-21T07:16:15.317Z,17.95
2019-05-21T07:16:52.068Z,19.02
2019-05-21T07:17:25.875Z,19.42
2019-05-21T07:17:59.415Z,17.85
2019-05-21T07:18:33.322Z,17.92
2019-05-21T07:19:07.227Z,24.07
2019-05-21T07:19:40.767Z,16.27
2019-05-21T07:20:15.274Z,20.08
2019-05-21T07:20:49.183Z,16.35
2019-05-21T07:21:22.755Z,18.57
2019-05-21T07:22:11.372Z,18.45
2019-05-21T07:22:32.314Z,21.85
2019-05-21T07:23:06.006Z,18.52
2019-05-21T07:23:40.059Z,17.80
2019-05-21T07:24:14.050Z,18.27
2019-05-21T07:24:47.608Z,16.70
2019-05-21T07:25:21.556Z,18.12
2019-05-21T07:25:55.664Z,17.15
2019-05-21T07:26:29.221Z,18.92
2019-05-21T07:27:03.110Z,18.50
2019-05-21T07:27:37.195Z,18.40
2019-05-21T07:28:10.861Z,17.35